createdAt,value
2017-04-03T00:00:20.659Z,21.14
2017-04-03T00:01:01.250Z,21.19
2017-04-03T00:02:38.609Z,21.17
2017-04-03T00:03:19.188Z,21.21
2017-04-03T00:03:59.774Z,21.16
2017-04-03T00:04:40.359Z,21.13
2017-04-03T00:05:20.939Z,21.22
2017-04-03T00:06:01.528Z,21.14
2017-04-03T00:06:42.119Z,21.16
2017-04-03T00:07:22.703Z,21.16
2017-04-03T00:08:03.278Z,21.16
2017-04-03T00:08:43.857Z,21.17
2017-04-03T00:09:24.439Z,21.12
2017-04-03T00:10:05.018Z,21.16
2017-04-03T00:12:02.737Z,21.19
2017-04-03T00:12:43.318Z,21.17
2017-04-03T00:13:23.902Z,21.17
2017-04-03T00:14:04.487Z,21.04
2017-04-03T00:14:45.072Z,21.13
2017-04-03T00:15:25.654Z,21.17
2017-04-03T00:16:06.239Z,21.14
2017-04-03T00:16:46.810Z,21.12
2017-04-03T00:17:27.391Z,21.21
2017-04-03T00:18:07.972Z,21.14
2017-04-03T00:18:48.549Z,21.14
2017-04-03T00:19:29.131Z,21.17
2017-04-03T00:20:09.716Z,21.16
2017-04-03T00:20:50.289Z,21.17
2017-04-03T00:21:30.877Z,21.16
2017-04-03T00:22:11.451Z,21.24
2017-04-03T00:22:52.038Z,21.22
2017-04-03T00:23:32.606Z,21.1
2017-04-03T00:24:13.188Z,21.21
2017-04-03T00:24:53.771Z,21.25
2017-04-03T00:25:34.348Z,21.1
2017-04-03T00:26:14.931Z,21.14
2017-04-03T00:26:55.518Z,21.16
2017-04-03T00:27:36.097Z,21.16
2017-04-03T00:28:16.675Z,21.17
2017-04-03T00:28:57.261Z,21.16
2017-04-03T00:29:37.849Z,21.16
2017-04-03T00:30:18.435Z,21.19
2017-04-03T00:30:59.018Z,21.16
2017-04-03T00:31:39.607Z,21.14
2017-04-03T00:32:20.186Z,21.16
2017-04-03T00:33:15.559Z,21.16
2017-04-03T00:33:56.129Z,21.21
2017-04-03T00:34:36.705Z,21.21
2017-04-03T00:35:17.291Z,21.19
2017-04-03T00:35:57.871Z,21.14
2017-04-03T00:36:38.453Z,21.13
2017-04-03T00:37:19.036Z,21.16
2017-04-03T00:37:59.611Z,21.17
2017-04-03T00:38:40.192Z,21.14
2017-04-03T00:39:20.773Z,21.12
2017-04-03T00:40:01.359Z,21.13
2017-04-03T00:40:41.928Z,21.09
2017-04-03T00:41:22.517Z,21.16
2017-04-03T00:42:03.097Z,21.16
2017-04-03T00:42:43.682Z,21.19
2017-04-03T00:43:24.269Z,21.19
2017-04-03T00:44:04.850Z,21.25
2017-04-03T00:44:45.435Z,21.14
2017-04-03T00:45:26.018Z,21.14
2017-04-03T00:46:06.607Z,21.16
2017-04-03T00:46:47.184Z,21.14
2017-04-03T00:47:27.762Z,21.13
2017-04-03T00:48:08.336Z,21.27
2017-04-03T00:48:48.932Z,21.07
2017-04-03T00:49:44.340Z,21.21
2017-04-03T00:50:24.923Z,21.19
2017-04-03T00:51:05.519Z,21.21
2017-04-03T00:51:46.091Z,21.21
2017-04-03T00:52:26.686Z,21.21
2017-04-03T00:53:07.267Z,21.22
2017-04-03T00:53:47.852Z,21.13
2017-04-03T00:54:28.430Z,21.21
2017-04-03T00:55:09.014Z,21.1
2017-04-03T00:55:49.603Z,21.17
2017-04-03T00:56:30.183Z,21.07
2017-04-03T00:58:22.795Z,21.17
2017-04-03T00:59:03.379Z,21.19
2017-04-03T00:59:43.957Z,21.14
2017-04-03T01:00:24.543Z,21.19
2017-04-03T01:01:05.126Z,21.06
2017-04-03T01:01:45.711Z,21.22
2017-04-03T01:02:26.291Z,21.14
2017-04-03T01:03:06.865Z,21.19
2017-04-03T01:03:47.456Z,21.19
2017-04-03T01:04:28.042Z,21.21
2017-04-03T01:05:08.626Z,21.13
2017-04-03T01:05:49.211Z,21.21
2017-04-03T01:06:29.795Z,21.16
2017-04-03T01:07:10.372Z,21.16
2017-04-03T01:07:50.951Z,21.13
2017-04-03T01:08:31.539Z,21.19
2017-04-03T01:09:12.112Z,21.12
2017-04-03T01:09:52.691Z,21.16
2017-04-03T01:10:33.266Z,21.21
2017-04-03T01:11:13.844Z,21.19
2017-04-03T01:11:54.427Z,21.22
2017-04-03T01:12:35.006Z,21.14
2017-04-03T01:13:15.586Z,21.17
2017-04-03T01:13:56.163Z,21.13
2017-04-03T01:14:36.748Z,21.17
2017-04-03T01:15:17.333Z,21.22
2017-04-03T01:15:57.919Z,21.21
2017-04-03T01:16:38.503Z,21.16
2017-04-03T01:17:19.086Z,21.16
2017-04-03T01:17:59.674Z,21.04
2017-04-03T01:18:40.260Z,21.16
2017-04-03T01:19:20.835Z,21.14
2017-04-03T01:20:01.420Z,21.16
2017-04-03T01:20:42.007Z,21.13
2017-04-03T01:21:37.397Z,21.14
2017-04-03T01:22:17.988Z,21.04
2017-04-03T01:23:13.345Z,21.17
2017-04-03T01:23:53.928Z,21.16
2017-04-03T01:24:34.516Z,21.16
2017-04-03T01:25:15.095Z,21.07
2017-04-03T01:25:55.677Z,21.07
2017-04-03T01:26:36.259Z,21.14
2017-04-03T01:27:16.848Z,21.17
2017-04-03T01:27:57.432Z,21.03
2017-04-03T01:28:38.011Z,21.16
2017-04-03T01:29:18.666Z,21.21
2017-04-03T01:29:59.254Z,21.14
2017-04-03T01:30:39.839Z,21.17
2017-04-03T01:31:20.420Z,21.16
2017-04-03T01:32:01.002Z,21.19
2017-04-03T01:32:41.589Z,21.12
2017-04-03T01:33:22.173Z,21.14
2017-04-03T01:34:02.747Z,21.06
2017-04-03T01:34:43.331Z,21.12
2017-04-03T01:35:23.916Z,21.16
2017-04-03T01:36:04.503Z,21.13
2017-04-03T01:36:45.084Z,21.13
2017-04-03T01:37:25.786Z,21.12
2017-04-03T01:38:06.374Z,21.14
2017-04-03T01:38:46.957Z,21.13
2017-04-03T01:39:27.539Z,21.14
2017-04-03T01:40:08.122Z,21.04
2017-04-03T01:40:48.708Z,21.1
2017-04-03T01:41:29.292Z,21.16
2017-04-03T01:42:09.875Z,21.19
2017-04-03T01:42:50.457Z,21.07
2017-04-03T01:43:31.029Z,21.14
2017-04-03T01:44:11.605Z,21.1
2017-04-03T01:44:52.184Z,21.03
2017-04-03T01:45:32.771Z,21.16
2017-04-03T01:46:13.347Z,21.17
2017-04-03T01:46:53.930Z,21.06
2017-04-03T01:47:34.509Z,21.13
2017-04-03T01:48:15.092Z,21.07
2017-04-03T01:48:55.664Z,21.06
2017-04-03T01:49:36.285Z,21.04
2017-04-03T01:50:16.843Z,21.14
2017-04-03T01:50:57.416Z,21.16
2017-04-03T01:51:38.002Z,21.14
2017-04-03T01:52:18.591Z,21.03
2017-04-03T01:52:59.173Z,21.06
2017-04-03T01:53:39.756Z,21.09
2017-04-03T01:54:20.338Z,21.12
2017-04-03T01:55:00.916Z,21.12
2017-04-03T01:55:41.500Z,21.09
2017-04-03T01:56:22.083Z,21.07
2017-04-03T01:57:02.668Z,21.06
2017-04-03T01:57:43.254Z,21.12
2017-04-03T01:58:23.831Z,21.13
2017-04-03T01:59:04.426Z,21.01
2017-04-03T01:59:45.012Z,21.1
2017-04-03T02:00:25.595Z,21.12
2017-04-03T02:01:06.178Z,21.04
2017-04-03T02:01:46.774Z,21.14
2017-04-03T02:02:27.353Z,21.06
2017-04-03T02:03:07.934Z,21.12
2017-04-03T02:03:48.518Z,21.07
2017-04-03T02:04:29.100Z,21.13
2017-04-03T02:05:09.683Z,20.98
2017-04-03T02:05:50.264Z,21.01
2017-04-03T02:06:30.847Z,21.14
2017-04-03T02:07:11.434Z,21.07
2017-04-03T02:07:52.019Z,21.09
2017-04-03T02:08:32.593Z,21.14
2017-04-03T02:09:13.173Z,21.12
2017-04-03T02:09:53.759Z,21.03
2017-04-03T02:10:34.343Z,21.09
2017-04-03T02:11:14.928Z,21.12
2017-04-03T02:11:55.513Z,21.1
2017-04-03T02:12:36.093Z,21.14
2017-04-03T02:13:16.684Z,21.16
2017-04-03T02:13:57.267Z,21.04
2017-04-03T02:14:37.853Z,21.09
2017-04-03T02:15:18.435Z,21.04
2017-04-03T02:15:59.016Z,21.16
2017-04-03T02:16:39.590Z,21.14
2017-04-03T02:17:20.171Z,21.07
2017-04-03T02:18:00.763Z,21.06
2017-04-03T02:18:41.347Z,21.06
2017-04-03T02:19:21.925Z,21.04
2017-04-03T02:20:02.517Z,21.1
2017-04-03T02:20:43.096Z,21.1
2017-04-03T02:21:23.685Z,21.1
2017-04-03T02:22:04.269Z,21.03
2017-04-03T02:22:44.850Z,21.07
2017-04-03T02:23:25.428Z,21.01
2017-04-03T02:24:06.013Z,21.12
2017-04-03T02:24:46.593Z,21.1
2017-04-03T02:25:27.177Z,21.12
2017-04-03T02:26:07.759Z,21.07
2017-04-03T02:26:48.337Z,21.13
2017-04-03T02:27:28.924Z,21.06
2017-04-03T02:28:09.515Z,21.12
2017-04-03T02:28:50.089Z,21.1
2017-04-03T02:29:30.682Z,21.12
2017-04-03T02:30:11.265Z,21.14
2017-04-03T02:32:03.881Z,21.12
2017-04-03T02:32:44.463Z,21.12
2017-04-03T02:33:25.046Z,21.1
2017-04-03T02:34:05.626Z,21.12
2017-04-03T02:34:46.206Z,21.07
2017-04-03T02:35:26.794Z,21.01
2017-04-03T02:36:07.355Z,21.09
2017-04-03T02:36:47.932Z,21.16
2017-04-03T02:37:28.967Z,21.07
2017-04-03T02:38:09.515Z,21.1
2017-04-03T02:38:50.100Z,21.07
2017-04-03T02:39:30.687Z,21.14
2017-04-03T02:40:11.264Z,21.13
2017-04-03T02:43:20.908Z,21.16
2017-04-03T02:44:01.499Z,21.07
2017-04-03T02:45:38.858Z,21.13
2017-04-03T02:46:19.440Z,21.14
2017-04-03T02:47:00.013Z,21.1
2017-04-03T02:47:40.584Z,21.16
2017-04-03T02:48:21.176Z,21.01
2017-04-03T02:49:01.752Z,21.17
2017-04-03T02:49:42.331Z,21.12
2017-04-03T02:50:22.895Z,21.01
2017-04-03T02:51:03.490Z,21.04
2017-04-03T02:51:44.075Z,21.14
2017-04-03T02:52:24.654Z,21.12
2017-04-03T02:53:05.236Z,21.06
2017-04-03T02:53:45.815Z,21.07
2017-04-03T02:54:26.391Z,21.12
2017-04-03T02:55:06.972Z,21.1
2017-04-03T02:55:47.541Z,21.06
2017-04-03T02:57:24.904Z,21.16
2017-04-03T02:58:05.477Z,21.07
2017-04-03T02:58:46.053Z,21.07
2017-04-03T02:59:26.632Z,21.07
2017-04-03T03:00:07.219Z,21.04
2017-04-03T03:00:47.790Z,21.07
2017-04-03T03:01:28.374Z,21.09
2017-04-03T03:02:08.963Z,20.99
2017-04-03T03:02:49.540Z,21.09
2017-04-03T03:03:30.117Z,21.07
2017-04-03T03:04:10.696Z,21.04
2017-04-03T03:04:51.281Z,21.12
2017-04-03T03:05:31.864Z,21.06
2017-04-03T03:06:12.443Z,21.09
2017-04-03T03:06:53.022Z,21.12
2017-04-03T03:07:33.606Z,21.1
2017-04-03T03:08:14.186Z,21.03
2017-04-03T03:08:54.763Z,21.07
2017-04-03T03:09:35.356Z,21.06
2017-04-03T03:11:12.713Z,21.09
2017-04-03T03:11:53.300Z,21.12
2017-04-03T03:12:33.883Z,21.03
2017-04-03T03:13:14.462Z,21.04
2017-04-03T03:13:55.047Z,21.06
2017-04-03T03:14:35.624Z,21.07
2017-04-03T03:15:16.206Z,21.04
2017-04-03T03:15:56.789Z,21.04
2017-04-03T03:16:37.373Z,20.99
2017-04-03T03:17:17.957Z,21.03
2017-04-03T03:17:58.531Z,21.03
2017-04-03T03:18:39.128Z,21.07
2017-04-03T03:19:19.693Z,21.04
2017-04-03T03:20:00.298Z,21.01
2017-04-03T03:20:40.881Z,21.09
2017-04-03T03:21:21.740Z,21.01
2017-04-03T03:22:02.829Z,21.07
2017-04-03T03:22:43.641Z,21.06
2017-04-03T03:23:24.556Z,21.03
2017-04-03T03:24:05.617Z,21.04
2017-04-03T03:24:46.405Z,21.06
2017-04-03T03:25:27.223Z,21.01
2017-04-03T03:26:07.806Z,21.04
2017-04-03T03:26:48.644Z,20.99
2017-04-03T03:27:29.373Z,21.03
2017-04-03T03:28:10.245Z,21.09
2017-04-03T03:28:51.007Z,20.98
2017-04-03T03:29:31.666Z,21.04
2017-04-03T03:30:12.254Z,21.06
2017-04-03T03:30:53.656Z,21.03
2017-04-03T03:31:34.235Z,20.98
2017-04-03T03:32:14.995Z,21.04
2017-04-03T03:32:55.958Z,21.03
2017-04-03T03:33:36.877Z,21.06
2017-04-03T03:34:17.799Z,21.03
2017-04-03T03:34:58.502Z,21.06
2017-04-03T03:35:39.235Z,20.98
2017-04-03T03:36:20.166Z,21.06
2017-04-03T03:37:01.108Z,21.04
2017-04-03T03:37:42.071Z,21.1
2017-04-03T03:38:22.988Z,21.01
2017-04-03T03:39:03.565Z,20.99
2017-04-03T03:39:44.392Z,21.07
2017-04-03T03:40:24.980Z,21.03
2017-04-03T03:41:05.629Z,21.06
2017-04-03T03:41:46.219Z,20.97
2017-04-03T03:42:26.791Z,20.98
2017-04-03T03:43:07.382Z,21.03
2017-04-03T03:43:47.948Z,21.04
2017-04-03T03:44:28.531Z,21.01
2017-04-03T03:45:09.109Z,21.09
2017-04-03T03:45:49.692Z,20.99
2017-04-03T03:46:30.264Z,20.99
2017-04-03T03:47:10.850Z,21.01
2017-04-03T03:47:51.424Z,21.03
2017-04-03T03:48:32.003Z,21.06
2017-04-03T03:49:12.587Z,20.94
2017-04-03T03:49:53.175Z,20.98
2017-04-03T03:50:33.749Z,20.91
2017-04-03T03:51:14.333Z,20.85
2017-04-03T03:51:54.926Z,20.74
2017-04-03T03:52:35.493Z,20.69
2017-04-03T03:53:16.072Z,20.55
2017-04-03T03:53:56.665Z,20.48
2017-04-03T03:54:37.248Z,20.55
2017-04-03T03:55:17.827Z,20.5
2017-04-03T03:55:58.391Z,20.43
2017-04-03T03:56:38.979Z,20.28
2017-04-03T03:57:19.561Z,20.23
2017-04-03T03:58:00.137Z,20.11
2017-04-03T03:58:40.731Z,20.1
2017-04-03T03:59:21.310Z,19.94
2017-04-03T04:00:01.891Z,19.91
2017-04-03T04:00:42.474Z,19.83
2017-04-03T04:01:23.054Z,19.73
2017-04-03T04:02:03.642Z,19.68
2017-04-03T04:02:44.231Z,19.63
2017-04-03T04:03:24.815Z,19.5
2017-04-03T04:04:05.387Z,19.46
2017-04-03T04:04:45.964Z,19.41
2017-04-03T04:05:26.547Z,19.26
2017-04-03T04:06:07.126Z,19.31
2017-04-03T04:06:47.711Z,19.28
2017-04-03T04:07:28.296Z,19.23
2017-04-03T04:08:08.876Z,19.13
2017-04-03T04:08:49.448Z,19.11
2017-04-03T04:09:30.036Z,19.11
2017-04-03T04:10:10.612Z,18.95
2017-04-03T04:10:51.188Z,19.06
2017-04-03T04:11:31.775Z,19.02
2017-04-03T04:12:12.358Z,18.95
2017-04-03T04:12:52.941Z,18.91
2017-04-03T04:13:33.525Z,18.9
2017-04-03T04:14:14.099Z,18.81
2017-04-03T04:14:54.690Z,18.81
2017-04-03T04:15:35.258Z,18.75
2017-04-03T04:16:15.841Z,18.69
2017-04-03T04:16:56.422Z,18.54
2017-04-03T04:17:37.010Z,18.55
2017-04-03T04:18:17.593Z,18.42
2017-04-03T04:18:58.176Z,18.5
2017-04-03T04:19:38.751Z,18.5
2017-04-03T04:20:19.330Z,18.36
2017-04-03T04:20:59.909Z,18.32
2017-04-03T04:21:40.490Z,18.32
2017-04-03T04:22:21.077Z,18.18
2017-04-03T04:23:01.664Z,18.21
2017-04-03T04:23:42.240Z,18.12
2017-04-03T04:24:22.817Z,18.14
2017-04-03T04:25:03.384Z,18.18
2017-04-03T04:25:43.961Z,18.11
2017-04-03T04:26:24.543Z,18.05
2017-04-03T04:27:05.116Z,18.03
2017-04-03T04:27:45.698Z,18.03
2017-04-03T04:28:26.284Z,18.02
2017-04-03T04:30:23.989Z,18
2017-04-03T04:31:04.562Z,18.02
2017-04-03T04:31:45.148Z,17.92
2017-04-03T04:32:25.733Z,17.89
2017-04-03T04:33:06.310Z,17.89
2017-04-03T04:33:46.895Z,17.79
2017-04-03T04:34:27.462Z,17.79
2017-04-03T04:35:08.046Z,17.81
2017-04-03T04:35:48.621Z,17.86
2017-04-03T04:36:29.203Z,17.79
2017-04-03T04:37:09.783Z,17.9
2017-04-03T04:37:50.364Z,17.82
2017-04-03T04:38:30.934Z,17.87
2017-04-03T04:39:11.504Z,17.75
2017-04-03T04:39:52.076Z,17.81
2017-04-03T04:40:32.684Z,17.81
2017-04-03T04:41:13.267Z,17.81
2017-04-03T04:41:53.848Z,17.84
2017-04-03T04:42:34.424Z,17.75
2017-04-03T04:43:14.999Z,17.81
2017-04-03T04:43:55.579Z,17.75
2017-04-03T04:44:36.142Z,17.79
2017-04-03T04:46:28.751Z,17.81
2017-04-03T04:47:09.333Z,17.75
2017-04-03T04:47:49.898Z,17.81
2017-04-03T04:48:30.463Z,17.81
2017-04-03T04:49:11.061Z,17.79
2017-04-03T04:49:51.639Z,17.82
2017-04-03T04:50:32.224Z,17.72
2017-04-03T04:51:12.806Z,17.81
2017-04-03T04:51:53.385Z,17.81
2017-04-03T04:52:33.964Z,17.74
2017-04-03T04:53:14.544Z,17.68
2017-04-03T04:53:55.121Z,17.72
2017-04-03T04:54:35.704Z,17.7
2017-04-03T04:55:16.277Z,17.62
2017-04-03T04:55:56.866Z,17.7
2017-04-03T04:56:37.448Z,17.56
2017-04-03T04:57:18.015Z,17.62
2017-04-03T04:59:15.720Z,17.64
2017-04-03T04:59:56.301Z,17.63
2017-04-03T05:00:36.882Z,17.56
2017-04-03T05:01:17.469Z,17.59
2017-04-03T05:01:58.052Z,17.63
2017-04-03T05:02:38.633Z,17.72
2017-04-03T05:03:19.201Z,17.74
2017-04-03T05:03:59.765Z,17.74
2017-04-03T05:04:40.348Z,17.72
2017-04-03T05:05:20.932Z,17.75
2017-04-03T05:06:01.498Z,17.72
2017-04-03T05:06:42.072Z,17.81
2017-04-03T05:07:22.655Z,17.81
2017-04-03T05:08:03.233Z,17.79
2017-04-03T05:08:43.804Z,17.79
2017-04-03T05:09:24.384Z,17.66
2017-04-03T05:10:04.955Z,17.82
2017-04-03T05:10:45.533Z,17.71
2017-04-03T05:11:26.110Z,17.86
2017-04-03T05:12:06.693Z,17.82
2017-04-03T05:12:47.272Z,17.87
2017-04-03T05:13:27.852Z,17.79
2017-04-03T05:14:08.439Z,17.86
2017-04-03T05:14:49.031Z,17.92
2017-04-03T05:15:29.596Z,17.95
2017-04-03T05:16:10.174Z,18.02
2017-04-03T05:16:50.757Z,18.03
2017-04-03T05:17:31.337Z,18.03
2017-04-03T05:18:11.920Z,18.05
2017-04-03T05:18:52.494Z,18.05
2017-04-03T05:19:33.070Z,18.08
2017-04-03T05:20:13.644Z,18.12
2017-04-03T05:20:54.225Z,18.15
2017-04-03T05:21:34.806Z,18.2
2017-04-03T05:22:15.387Z,18.2
2017-04-03T05:22:55.971Z,18.21
2017-04-03T05:23:36.556Z,18.36
2017-04-03T05:24:17.130Z,18.29
2017-04-03T05:24:57.716Z,18.32
2017-04-03T05:25:38.288Z,18.47
2017-04-03T05:26:18.868Z,18.45
2017-04-03T05:26:59.443Z,18.48
2017-04-03T05:27:40.015Z,18.54
2017-04-03T05:28:20.643Z,18.45
2017-04-03T05:29:01.180Z,18.52
2017-04-03T05:29:41.760Z,18.54
2017-04-03T05:30:22.341Z,18.62
2017-04-03T05:32:14.947Z,18.72
2017-04-03T05:32:55.527Z,18.78
2017-04-03T05:33:36.103Z,18.82
2017-04-03T05:34:16.677Z,18.84
2017-04-03T05:34:57.254Z,18.88
2017-04-03T05:35:37.833Z,18.94
2017-04-03T05:36:18.400Z,18.99
2017-04-03T05:36:58.973Z,19.1
2017-04-03T05:37:39.555Z,19.04
2017-04-03T05:38:20.134Z,19
2017-04-03T05:39:00.698Z,19.06
2017-04-03T05:39:41.272Z,18.99
2017-04-03T05:40:21.855Z,19.1
2017-04-03T05:41:02.427Z,19.18
2017-04-03T05:42:55.028Z,19.23
2017-04-03T05:43:35.612Z,19.25
2017-04-03T05:44:16.192Z,19.25
2017-04-03T05:45:11.534Z,19.26
2017-04-03T05:45:52.146Z,19.36
2017-04-03T05:46:32.674Z,19.36
2017-04-03T05:47:13.256Z,19.36
2017-04-03T05:47:53.845Z,19.29
2017-04-03T05:48:34.417Z,19.39
2017-04-03T05:49:14.997Z,19.43
2017-04-03T05:49:55.578Z,19.44
2017-04-03T05:50:36.166Z,19.4
2017-04-03T05:51:16.744Z,19.37
2017-04-03T05:51:57.318Z,19.44
2017-04-03T05:52:37.899Z,19.47
2017-04-03T05:53:18.473Z,19.48
2017-04-03T05:53:59.050Z,19.54
2017-04-03T05:54:39.630Z,19.5
2017-04-03T05:55:20.217Z,19.5
2017-04-03T05:56:00.802Z,19.54
2017-04-03T05:56:41.388Z,19.59
2017-04-03T05:57:21.965Z,19.55
2017-04-03T05:58:02.545Z,19.61
2017-04-03T05:58:43.130Z,19.73
2017-04-03T05:59:23.702Z,19.68
2017-04-03T06:00:04.286Z,19.68
2017-04-03T06:00:44.865Z,19.78
2017-04-03T06:01:25.454Z,19.77
2017-04-03T06:02:06.034Z,19.94
2017-04-03T06:02:46.620Z,19.91
2017-04-03T06:03:27.205Z,19.87
2017-04-03T06:04:07.783Z,20.02
2017-04-03T06:04:48.361Z,20.05
2017-04-03T06:05:28.954Z,20.11
2017-04-03T06:06:09.534Z,20.14
2017-04-03T06:06:50.122Z,20.24
2017-04-03T06:07:30.703Z,20.2
2017-04-03T06:08:11.281Z,20.21
2017-04-03T06:08:51.856Z,20.23
2017-04-03T06:09:32.429Z,20.08
2017-04-03T06:10:13.011Z,20.21
2017-04-03T06:10:53.589Z,20.23
2017-04-03T06:11:34.162Z,20.06
2017-04-03T06:12:14.747Z,20.18
2017-04-03T06:12:55.327Z,20.03
2017-04-03T06:13:35.908Z,20.11
2017-04-03T06:14:16.487Z,20.05
2017-04-03T06:14:57.068Z,20.03
2017-04-03T06:15:37.657Z,19.96
2017-04-03T06:16:18.234Z,19.91
2017-04-03T06:16:58.820Z,19.95
2017-04-03T06:17:39.402Z,20.05
2017-04-03T06:18:19.987Z,19.94
2017-04-03T06:19:00.570Z,19.92
2017-04-03T06:19:41.149Z,19.88
2017-04-03T06:20:36.541Z,19.98
2017-04-03T06:21:17.124Z,19.99
2017-04-03T06:21:57.712Z,19.92
2017-04-03T06:22:38.285Z,19.88
2017-04-03T06:23:18.860Z,19.86
2017-04-03T06:23:59.445Z,19.94
2017-04-03T06:24:40.024Z,19.87
2017-04-03T06:25:20.615Z,19.92
2017-04-03T06:26:01.200Z,19.87
2017-04-03T06:26:41.772Z,19.77
2017-04-03T06:27:22.336Z,19.88
2017-04-03T06:28:02.931Z,19.83
2017-04-03T06:28:43.510Z,19.78
2017-04-03T06:29:24.093Z,19.84
2017-04-03T06:30:04.678Z,19.76
2017-04-03T06:30:45.259Z,19.74
2017-04-03T06:31:25.841Z,19.8
2017-04-03T06:32:06.427Z,19.83
2017-04-03T06:32:46.995Z,19.77
2017-04-03T06:33:27.566Z,19.77
2017-04-03T06:34:08.153Z,19.76
2017-04-03T06:34:48.741Z,19.78
2017-04-03T06:35:29.327Z,19.73
2017-04-03T06:36:09.896Z,19.69
2017-04-03T06:36:50.477Z,19.69
2017-04-03T06:37:31.059Z,19.66
2017-04-03T06:38:11.638Z,19.81
2017-04-03T06:38:52.215Z,19.76
2017-04-03T06:39:32.799Z,19.71
2017-04-03T06:40:13.379Z,19.69
2017-04-03T06:40:53.953Z,19.66
2017-04-03T06:41:34.544Z,19.68
2017-04-03T06:42:15.115Z,19.66
2017-04-03T06:42:55.687Z,19.71
2017-04-03T06:43:36.278Z,19.76
2017-04-03T06:44:16.852Z,19.71
2017-04-03T06:44:57.418Z,19.83
2017-04-03T06:45:38.000Z,19.83
2017-04-03T06:46:18.576Z,19.78
2017-04-03T06:46:59.160Z,19.88
2017-04-03T06:47:39.741Z,19.81
2017-04-03T06:48:20.325Z,19.98
2017-04-03T06:49:00.899Z,19.98
2017-04-03T06:49:41.525Z,20.08
2017-04-03T06:50:22.074Z,20.13
2017-04-03T06:51:02.647Z,20.21
2017-04-03T06:51:43.209Z,20.28
2017-04-03T06:52:23.804Z,20.38
2017-04-03T06:53:04.388Z,20.43
2017-04-03T06:54:56.992Z,20.59
2017-04-03T06:55:37.568Z,20.72
2017-04-03T06:56:18.151Z,20.77
2017-04-03T06:56:58.729Z,21.06
2017-04-03T06:57:39.314Z,21.31
2017-04-03T06:58:19.896Z,21.35
2017-04-03T06:59:00.470Z,21.65
2017-04-03T06:59:41.053Z,22.14
2017-04-03T07:00:21.630Z,22.39
2017-04-03T07:01:02.211Z,22.68
2017-04-03T07:01:42.794Z,23.28
2017-04-03T07:02:23.381Z,23.58
2017-04-03T07:03:03.963Z,24.1
2017-04-03T07:03:44.541Z,24.43
2017-04-03T07:04:25.134Z,24.84
2017-04-03T07:05:05.709Z,25.08
2017-04-03T07:05:46.291Z,25.35
2017-04-03T07:06:26.864Z,25.64
2017-04-03T07:07:07.444Z,26.1
2017-04-03T07:07:48.023Z,26.36
2017-04-03T07:08:28.604Z,26.65
2017-04-03T07:09:09.189Z,26.94
2017-04-03T07:09:49.772Z,27.21
2017-04-03T07:10:30.355Z,27.54
2017-04-03T07:11:10.939Z,27.92
2017-04-03T07:11:51.522Z,28.14
2017-04-03T07:12:32.113Z,28.37
2017-04-03T07:13:12.695Z,28.66
2017-04-03T07:13:53.281Z,28.86
2017-04-03T07:14:33.859Z,29.11
2017-04-03T07:15:14.452Z,29.41
2017-04-03T07:16:09.759Z,29.64
2017-04-03T07:16:50.342Z,29.85
2017-04-03T07:17:30.931Z,29.98
2017-04-03T07:18:11.512Z,29.98
2017-04-03T07:18:52.105Z,29.86
2017-04-03T07:19:32.676Z,29.43
2017-04-03T07:20:13.261Z,29.24
2017-04-03T07:20:53.846Z,28.96
2017-04-03T07:21:34.428Z,28.74
2017-04-03T07:22:15.015Z,28.43
2017-04-03T07:22:55.591Z,28.29
2017-04-03T07:23:36.176Z,28.19
2017-04-03T07:24:16.767Z,27.97
2017-04-03T07:24:57.357Z,27.94
2017-04-03T07:25:37.944Z,28.31
2017-04-03T07:26:18.527Z,28.33
2017-04-03T07:26:59.104Z,28.49
2017-04-03T07:27:39.692Z,28.52
2017-04-03T07:28:20.280Z,28.46
2017-04-03T07:29:00.862Z,28.59
2017-04-03T07:29:41.445Z,28.66
2017-04-03T07:30:22.032Z,28.62
2017-04-03T07:31:02.616Z,28.55
2017-04-03T07:31:43.201Z,28.78
2017-04-03T07:32:23.788Z,29.05
2017-04-03T07:33:04.376Z,29.34
2017-04-03T07:33:44.962Z,29.63
2017-04-03T07:34:25.544Z,30.07
2017-04-03T07:35:06.129Z,30.17
2017-04-03T07:35:46.706Z,30.39
2017-04-03T07:36:27.297Z,30.7
2017-04-03T07:37:07.884Z,31.01
2017-04-03T07:37:48.467Z,31.13
2017-04-03T07:38:29.055Z,31.28
2017-04-03T07:39:09.637Z,31.39
2017-04-03T07:39:50.225Z,31.61
2017-04-03T07:40:30.842Z,31.68
2017-04-03T07:41:11.396Z,31.73
2017-04-03T07:41:51.975Z,31.68
2017-04-03T07:42:32.568Z,31.43
2017-04-03T07:43:13.148Z,31.16
2017-04-03T07:43:53.739Z,30.82
2017-04-03T07:44:34.319Z,30.83
2017-04-03T07:45:14.891Z,30.79
2017-04-03T07:45:55.478Z,30.82
2017-04-03T07:46:36.069Z,30.7
2017-04-03T07:47:16.650Z,30.49
2017-04-03T07:47:57.237Z,30.37
2017-04-03T07:48:37.828Z,30.6
2017-04-03T07:49:18.409Z,30.76
2017-04-03T07:49:58.996Z,30.91
2017-04-03T07:50:39.580Z,30.98
2017-04-03T07:51:20.164Z,31.06
2017-04-03T07:52:00.748Z,31.34
2017-04-03T07:52:41.335Z,31.43
2017-04-03T07:53:21.923Z,31.51
2017-04-03T07:54:02.515Z,31.54
2017-04-03T07:54:43.098Z,31.58
2017-04-03T07:55:23.683Z,31.61
2017-04-03T07:56:04.266Z,31.7
2017-04-03T07:56:44.850Z,31.93
2017-04-03T07:57:25.427Z,32.01
2017-04-03T07:58:06.012Z,32.07
2017-04-03T07:58:46.603Z,32.21
2017-04-03T07:59:27.184Z,32.25
2017-04-03T08:00:07.773Z,32.15
2017-04-03T08:00:48.361Z,32.06
2017-04-03T08:01:28.935Z,32.19
2017-04-03T08:02:09.518Z,32.41
2017-04-03T08:03:04.778Z,32.57
2017-04-03T08:03:45.359Z,32.72
2017-04-03T08:04:25.956Z,32.84
2017-04-03T08:05:06.531Z,32.72
2017-04-03T08:05:47.104Z,32.57
2017-04-03T08:06:27.694Z,32.3
2017-04-03T08:07:08.281Z,32.07
2017-04-03T08:07:48.870Z,31.96
2017-04-03T08:08:29.453Z,31.75
2017-04-03T08:09:10.039Z,31.53
2017-04-03T08:09:50.617Z,31.51
2017-04-03T08:10:31.202Z,31.75
2017-04-03T08:11:11.786Z,31.85
2017-04-03T08:11:52.364Z,32.03
2017-04-03T08:12:32.953Z,32.1
2017-04-03T08:13:13.527Z,32.3
2017-04-03T08:13:54.110Z,32.33
2017-04-03T08:14:34.695Z,32.35
2017-04-03T08:15:15.277Z,32.25
2017-04-03T08:15:55.864Z,32.21
2017-04-03T08:16:36.453Z,32.1
2017-04-03T08:17:17.032Z,32.08
2017-04-03T08:17:57.624Z,31.86
2017-04-03T08:18:38.205Z,31.68
2017-04-03T08:19:18.793Z,31.39
2017-04-03T08:19:59.380Z,31.69
2017-04-03T08:20:39.969Z,32
2017-04-03T08:21:20.555Z,32.14
2017-04-03T08:22:01.129Z,32.35
2017-04-03T08:22:56.422Z,32.56
2017-04-03T08:23:37.005Z,32.62
2017-04-03T08:24:17.601Z,32.66
2017-04-03T08:24:58.184Z,32.57
2017-04-03T08:25:38.771Z,32.79
2017-04-03T08:26:19.362Z,32.99
2017-04-03T08:26:59.944Z,33.04
2017-04-03T08:27:40.534Z,33.19
2017-04-03T08:28:21.120Z,33.23
2017-04-03T08:29:01.704Z,33.35
2017-04-03T08:29:42.290Z,33.45
2017-04-03T08:30:22.877Z,33.54
2017-04-03T08:31:03.460Z,33.72
2017-04-03T08:31:59.034Z,33.93
2017-04-03T08:32:39.652Z,33.94
2017-04-03T08:33:20.209Z,33.95
2017-04-03T08:34:00.792Z,34
2017-04-03T08:34:41.384Z,34.1
2017-04-03T08:35:21.967Z,34.17
2017-04-03T08:36:02.557Z,34.15
2017-04-03T08:36:43.147Z,34.05
2017-04-03T08:37:23.727Z,33.79
2017-04-03T08:38:04.314Z,33.61
2017-04-03T08:38:44.890Z,33.22
2017-04-03T08:39:25.478Z,32.89
2017-04-03T08:40:06.066Z,32.6
2017-04-03T08:40:46.648Z,32.23
2017-04-03T08:41:27.236Z,32.23
2017-04-03T08:42:07.822Z,31.84
2017-04-03T08:42:48.405Z,31.68
2017-04-03T08:43:28.987Z,31.39
2017-04-03T08:44:09.569Z,31.1
2017-04-03T08:44:50.151Z,30.84
2017-04-03T08:45:30.734Z,30.58
2017-04-03T08:46:11.326Z,30.42
2017-04-03T08:46:51.908Z,30.08
2017-04-03T08:47:32.493Z,30.04
2017-04-03T08:48:13.078Z,29.71
2017-04-03T08:48:53.669Z,29.45
2017-04-03T08:49:34.257Z,29.31
2017-04-03T08:50:14.840Z,29.15
2017-04-03T08:50:55.427Z,29.02
2017-04-03T08:51:36.003Z,28.74
2017-04-03T08:52:16.585Z,28.61
2017-04-03T08:52:57.166Z,28.44
2017-04-03T08:53:37.755Z,28.33
2017-04-03T08:54:18.338Z,28.18
2017-04-03T08:54:58.928Z,28.14
2017-04-03T08:55:39.519Z,27.94
2017-04-03T08:56:20.098Z,27.87
2017-04-03T08:57:00.702Z,27.72
2017-04-03T08:57:41.285Z,27.7
2017-04-03T08:58:21.874Z,27.62
2017-04-03T08:59:02.461Z,27.47
2017-04-03T08:59:57.793Z,27.36
2017-04-03T09:00:38.378Z,27.27
2017-04-03T09:01:18.968Z,27.29
2017-04-03T09:01:59.554Z,27.19
2017-04-03T09:02:40.140Z,27.14
2017-04-03T09:03:20.729Z,27.22
2017-04-03T09:04:01.301Z,27.06